Time;durP1;ratioP1;P1;durP2;ratioP2;P2;SDS_P1;SDS_P2;PMS_P1;PMS_P2;Temp;Humidity;BMP_temperature;BMP_pressure;BME280_temperature;BME280_humidity;BME280_pressure;Samples;Min_cycle;Max_cycle;Signal;HPM_P1;HPM_P2
2021/08/04 00:02:24;;;;;;;;;;;;;;;16.78;80.26;100203.89;1416141;93;20305;-83
2021/08/04 00:04:50;;;;;;;;;;;;;;;16.78;79.58;100199.87;1408528;93;20298;-83
2021/08/04 00:07:16;;;;;;;;;;;;;;;16.79;80.38;100200.19;1413113;93;20225;-83
2021/08/04 00:09:46;;;;;;;;;;;;;;;16.84;79.85;100201.77;1409325;93;20399;-83
2021/08/04 00:12:12;;;;;;;;;;;;;;;16.87;80.20;100200.05;1417122;93;20380;-83
2021/08/04 00:14:38;;;;;;;;;;;;;;;16.94;79.73;100200.91;1415067;93;20247;-83
2021/08/04 00:17:04;;;;;;;;;;;;;;;16.99;79.55;100200.34;1415692;93;20874;-83
2021/08/04 00:19:30;;;;;;;;;;;;;;;17.01;79.19;100196.97;1422225;93;20413;-83
2021/08/04 00:21:56;;;;;;;;;;;;;;;17.05;78.67;100202.23;1412402;93;20301;-83
2021/08/04 00:24:22;;;;;;;;;;;;;;;17.10;79.08;100201.95;1414330;93;20294;-83
2021/08/04 00:26:48;;;;;;;;;;;;;;;17.08;79.52;100197.30;1405524;93;20440;-83
2021/08/04 00:29:14;;;;;;;;;;;;;;;17.08;78.93;100203.98;1408548;93;20218;-83
2021/08/04 00:31:40;;;;;;;;;;;;;;;17.04;79.89;100204.08;1410057;93;20328;-83
2021/08/04 00:34:06;;;;;;;;;;;;;;;16.99;79.57;100195.81;1411770;93;20247;-83
2021/08/04 00:36:32;;;;;;;;;;;;;;;16.98;78.98;100202.19;1404433;93;20285;-84
2021/08/04 00:38:59;;;;;;;;;;;;;;;16.95;80.11;100195.89;1412278;93;20982;-83
2021/08/04 00:41:25;;;;;;;;;;;;;;;16.93;79.17;100192.58;1413517;93;20247;-83
2021/08/04 00:43:51;;;;;;;;;;;;;;;16.91;80.04;100199.96;1418147;93;20232;-83
2021/08/04 00:46:17;;;;;;;;;;;;;;;16.85;79.83;100187.38;1406365;93;20798;-83
2021/08/04 00:48:44;;;;;;;;;;;;;;;16.84;79.13;100187.08;1407347;93;20262;-83
2021/08/04 00:51:11;;;;;;;;;;;;;;;16.84;79.19;100188.41;1418373;93;20395;-82
2021/08/04 00:53:37;;;;;;;;;;;;;;;16.83;79.24;100178.72;1410824;93;20336;-83
2021/08/04 00:56:08;;;;;;;;;;;;;;;16.80;79.74;100177.77;1411309;93;20297;-83
2021/08/04 00:58:37;;;;;;;;;;;;;;;16.79;79.65;100169.45;1408394;93;20224;-83
2021/08/04 01:01:24;;;;;;;;;;;;;;;16.76;80.72;100169.81;1412019;93;20350;-83
2021/08/04 01:03:53;;;;;;;;;;;;;;;16.75;80.91;100161.48;1408570;93;20290;-83
2021/08/04 01:06:22;;;;;;;;;;;;;;;16.76;79.96;100165.80;1404781;92;20293;-83
2021/08/04 01:08:52;;;;;;;;;;;;;;;16.77;80.14;100166.95;1407840;93;20336;-83
2021/08/04 01:11:18;;;;;;;;;;;;;;;16.78;79.81;100159.28;1404068;93;20938;-83
2021/08/04 01:13:49;;;;;;;;;;;;;;;16.78;79.52;100161.95;1415916;93;20254;-83
2021/08/04 01:16:27;;;;;;;;;;;;;;;16.78;80.14;100167.81;1403658;93;20351;-83
2021/08/04 01:19:20;;;;;;;;;;;;;;;16.79;80.21;100170.27;1407647;92;20351;-83
2021/08/04 01:22:04;;;;;;;;;;;;;;;16.80;79.69;100172.43;1416658;93;20298;-83
2021/08/04 01:24:37;;;;;;;;;;;;;;;16.86;79.73;100169.83;1406762;93;20293;-83
2021/08/04 01:27:04;;;;;;;;;;;;;;;16.90;79.67;100170.25;1407503;93;20533;-83
2021/08/04 01:29:30;;;;;;;;;;;;;;;16.89;79.31;100168.61;1410544;93;20305;-83
2021/08/04 01:31:58;;;;;;;;;;;;;;;16.90;79.27;100167.58;1418888;93;20268;-83
2021/08/04 01:34:25;;;;;;;;;;;;;;;16.89;78.67;100166.77;1406445;93;20246;-83
2021/08/04 01:36:52;;;;;;;;;;;;;;;16.82;78.67;100168.55;1408742;93;20350;-83
2021/08/04 01:39:19;;;;;;;;;;;;;;;16.77;79.46;100171.48;1417158;93;20892;-83
2021/08/04 01:41:46;;;;;;;;;;;;;;;16.72;80.07;100167.22;1413082;93;20269;-83
2021/08/04 01:44:14;;;;;;;;;;;;;;;16.71;79.91;100163.70;1402716;93;20313;-83
2021/08/04 01:46:40;;;;;;;;;;;;;;;16.69;80.04;100169.25;1411274;93;20900;-83
2021/08/04 01:49:07;;;;;;;;;;;;;;;16.67;79.69;100167.28;1409159;93;20298;-83
2021/08/04 01:51:33;;;;;;;;;;;;;;;16.68;80.00;100170.25;1404893;93;20350;-83
2021/08/04 01:53:59;;;;;;;;;;;;;;;16.66;80.03;100168.30;1403697;93;20225;-83
2021/08/04 01:56:26;;;;;;;;;;;;;;;16.64;80.81;100167.66;1410913;93;20359;-83
2021/08/04 01:58:53;;;;;;;;;;;;;;;16.60;80.95;100173.58;1412781;93;20246;-83
2021/08/04 02:01:19;;;;;;;;;;;;;;;16.54;81.14;100176.50;1414298;93;20314;-83
2021/08/04 02:03:45;;;;;;;;;;;;;;;16.51;80.67;100178.23;1403222;93;21483;-83
2021/08/04 02:06:23;;;;;;;;;;;;;;;16.47;80.63;100175.13;1414996;93;20344;-83
2021/08/04 02:09:01;;;;;;;;;;;;;;;16.46;81.93;100175.33;1402936;93;20313;-83
2021/08/04 02:11:42;;;;;;;;;;;;;;;16.51;81.58;100171.55;1408105;93;20277;-83
2021/08/04 02:14:18;;;;;;;;;;;;;;;16.53;81.41;100176.20;1403584;93;20283;-83
2021/08/04 02:17:03;;;;;;;;;;;;;;;16.52;81.29;100173.73;1401038;93;20306;-83
2021/08/04 02:19:48;;;;;;;;;;;;;;;16.52;81.50;100185.25;1413232;93;20321;-83
2021/08/04 02:22:18;;;;;;;;;;;;;;;16.55;81.51;100188.05;1411164;93;20355;-83
2021/08/04 02:24:47;;;;;;;;;;;;;;;16.55;81.08;100183.52;1406636;93;20343;-83
2021/08/04 02:27:14;;;;;;;;;;;;;;;16.56;80.85;100179.00;1404442;93;21477;-83
2021/08/04 02:29:42;;;;;;;;;;;;;;;16.58;80.77;100183.14;1402341;93;20395;-83
2021/08/04 02:32:08;;;;;;;;;;;;;;;16.59;81.02;100183.44;1413538;93;20283;-83
2021/08/04 02:34:34;;;;;;;;;;;;;;;16.61;80.67;100178.73;1399337;93;20240;-83
2021/08/04 02:37:00;;;;;;;;;;;;;;;16.63;80.43;100175.38;1411015;93;20415;-83
2021/08/04 02:39:27;;;;;;;;;;;;;;;16.59;80.65;100172.75;1409000;93;20358;-84
2021/08/04 02:41:53;;;;;;;;;;;;;;;16.56;80.81;100169.66;1408444;93;20804;-83
2021/08/04 02:44:20;;;;;;;;;;;;;;;16.56;80.83;100166.46;1419461;93;20232;-83
2021/08/04 02:46:47;;;;;;;;;;;;;;;16.51;81.29;100163.53;1410254;93;20340;-83
2021/08/04 02:49:15;;;;;;;;;;;;;;;16.50;81.32;100157.89;1407819;93;20365;-83
2021/08/04 02:51:41;;;;;;;;;;;;;;;16.47;81.53;100164.95;1416610;93;20292;-83
2021/08/04 02:54:09;;;;;;;;;;;;;;;16.44;81.88;100169.34;1412562;93;20307;-83
2021/08/04 02:56:35;;;;;;;;;;;;;;;16.41;82.37;100167.06;1409866;93;20806;-83
2021/08/04 02:59:01;;;;;;;;;;;;;;;16.41;82.62;100165.72;1407923;93;20314;-83
2021/08/04 03:01:27;;;;;;;;;;;;;;;16.41;82.74;100158.53;1409644;93;20254;-82
2021/08/04 03:03:53;;;;;;;;;;;;;;;16.37;82.46;100157.77;1410386;93;20353;-83
2021/08/04 03:06:19;;;;;;;;;;;;;;;16.33;82.91;100169.34;1414697;93;20275;-83
2021/08/04 03:08:45;;;;;;;;;;;;;;;16.31;82.52;100161.20;1401876;93;20239;-83
2021/08/04 03:11:10;;;;;;;;;;;;;;;16.30;82.14;100169.73;1420745;93;20291;-84
2021/08/04 03:13:37;;;;;;;;;;;;;;;16.32;82.03;100162.87;1413557;93;20307;-83
2021/08/04 03:16:04;;;;;;;;;;;;;;;16.35;82.19;100163.31;1410675;93;20387;-83
2021/08/04 03:18:30;;;;;;;;;;;;;;;16.40;82.22;100159.56;1405105;93;20313;-83
2021/08/04 03:20:56;;;;;;;;;;;;;;;16.44;82.82;100155.99;1413064;93;20313;-83
2021/08/04 03:23:22;;;;;;;;;;;;;;;16.46;82.74;100152.63;1408438;93;20271;-83
2021/08/04 03:25:48;;;;;;;;;;;;;;;16.46;82.35;100163.31;1410057;93;20395;-83
2021/08/04 03:28:14;;;;;;;;;;;;;;;16.46;82.23;100165.98;1405260;93;21549;-83
2021/08/04 03:30:40;;;;;;;;;;;;;;;16.47;82.08;100169.78;1419223;93;20291;-83
2021/08/04 03:33:06;;;;;;;;;;;;;;;16.50;81.96;100171.24;1415628;93;20299;-83
2021/08/04 03:35:32;;;;;;;;;;;;;;;16.54;82.05;100169.83;1410696;93;20866;-83
2021/08/04 03:37:58;;;;;;;;;;;;;;;16.59;81.75;100170.59;1401305;93;20731;-83
2021/08/04 03:40:24;;;;;;;;;;;;;;;16.65;81.82;100173.83;1404852;93;20447;-83
2021/08/04 03:42:50;;;;;;;;;;;;;;;16.67;81.52;100179.30;1398404;93;20277;-83
2021/08/04 03:45:16;;;;;;;;;;;;;;;16.65;82.31;100181.33;1412769;93;20322;-83
2021/08/04 03:47:42;;;;;;;;;;;;;;;16.67;81.55;100178.48;1413664;93;20325;-84
2021/08/04 03:50:09;;;;;;;;;;;;;;;16.65;81.42;100178.66;1410738;93;20355;-83
2021/08/04 03:52:35;;;;;;;;;;;;;;;16.64;81.86;100181.02;1405181;93;20394;-83
2021/08/04 03:55:01;;;;;;;;;;;;;;;16.66;81.76;100185.67;1407064;93;20845;-83
2021/08/04 03:57:27;;;;;;;;;;;;;;;16.66;81.97;100187.53;1415181;93;20423;-83
2021/08/04 03:59:53;;;;;;;;;;;;;;;16.64;82.19;100185.03;1411529;93;20357;-83
2021/08/04 04:02:19;;;;;;;;;;;;;;;16.64;81.72;100180.20;1414359;93;20305;-83
2021/08/04 04:04:45;;;;;;;;;;;;;;;16.61;81.62;100186.76;1408961;93;20354;-83
2021/08/04 04:07:12;;;;;;;;;;;;;;;16.61;81.58;100187.27;1412761;93;20268;-83
2021/08/04 04:09:39;;;;;;;;;;;;;;;16.59;81.87;100184.78;1416342;93;20269;-83
2021/08/04 04:12:05;;;;;;;;;;;;;;;16.61;81.60;100186.76;1410199;93;20402;-83
2021/08/04 04:14:31;;;;;;;;;;;;;;;16.63;81.79;100180.72;1412136;93;20826;-83
2021/08/04 04:16:57;;;;;;;;;;;;;;;16.64;82.07;100180.20;1406073;93;20268;-83
2021/08/04 04:19:23;;;;;;;;;;;;;;;16.64;81.99;100187.70;1414715;93;20414;-83
2021/08/04 04:21:49;;;;;;;;;;;;;;;16.67;83.06;100188.66;1412906;93;20738;-83
2021/08/04 04:24:15;;;;;;;;;;;;;;;16.68;82.85;100191.62;1412209;93;20322;-83
2021/08/04 04:26:41;;;;;;;;;;;;;;;16.76;82.51;100196.53;1409458;93;20224;-83
2021/08/04 04:29:07;;;;;;;;;;;;;;;16.80;82.29;100200.00;1403489;93;20269;-82
2021/08/04 04:31:33;;;;;;;;;;;;;;;16.86;82.37;100194.36;1410384;93;20469;-83
2021/08/04 04:33:59;;;;;;;;;;;;;;;16.95;82.04;100185.72;1412231;93;20292;-84
2021/08/04 04:36:24;;;;;;;;;;;;;;;17.03;81.96;100189.06;1406242;93;20269;-83
2021/08/04 04:38:50;;;;;;;;;;;;;;;17.10;81.61;100185.09;1409709;93;20270;-83
2021/08/04 04:41:17;;;;;;;;;;;;;;;17.23;81.36;100186.49;1409283;93;20389;-83
2021/08/04 04:43:42;;;;;;;;;;;;;;;17.34;81.51;100185.94;1414136;93;20254;-83
2021/08/04 04:46:09;;;;;;;;;;;;;;;17.45;81.01;100187.75;1411037;93;20432;-84
2021/08/04 04:48:35;;;;;;;;;;;;;;;17.52;80.62;100188.11;1406020;93;20231;-83
2021/08/04 04:51:01;;;;;;;;;;;;;;;17.59;80.81;100186.28;1413121;93;20305;-83
2021/08/04 04:53:27;;;;;;;;;;;;;;;17.67;80.02;100193.84;1411088;93;20316;-83
2021/08/04 04:55:54;;;;;;;;;;;;;;;17.73;79.85;100196.53;1414783;93;21700;-83
2021/08/04 04:58:20;;;;;;;;;;;;;;;17.75;79.53;100194.48;1407972;93;20305;-83
2021/08/04 05:00:46;;;;;;;;;;;;;;;17.76;79.33;100202.00;1410450;93;20246;-83
2021/08/04 05:03:12;;;;;;;;;;;;;;;17.77;79.24;100200.96;1409170;93;20329;-84
2021/08/04 05:05:38;;;;;;;;;;;;;;;17.80;79.77;100209.44;1416456;93;20283;-83
2021/08/04 05:08:04;;;;;;;;;;;;;;;17.80;79.60;100212.64;1407376;93;20254;-83
2021/08/04 05:10:30;;;;;;;;;;;;;;;17.83;79.66;100220.78;1412491;93;20852;-83
2021/08/04 05:12:56;;;;;;;;;;;;;;;17.87;79.84;100226.89;1417209;93;20277;-84
2021/08/04 05:15:22;;;;;;;;;;;;;;;17.95;80.04;100230.73;1408913;93;20261;-84
2021/08/04 05:17:48;;;;;;;;;;;;;;;18.04;80.24;100234.06;1403114;93;20389;-83
2021/08/04 05:20:15;;;;;;;;;;;;;;;18.13;80.82;100230.17;1408126;93;20275;-84
2021/08/04 05:22:41;;;;;;;;;;;;;;;18.18;79.22;100225.52;1414630;93;20284;-83
2021/08/04 05:25:09;;;;;;;;;;;;;;;18.29;78.94;100227.61;1415233;93;20233;-84
2021/08/04 05:27:35;;;;;;;;;;;;;;;18.46;78.93;100231.56;1410956;93;20263;-83
2021/08/04 05:30:01;;;;;;;;;;;;;;;18.59;78.21;100231.29;1418708;93;20827;-83
2021/08/04 05:32:26;;;;;;;;;;;;;;;18.65;77.74;100233.15;1410783;93;20406;-83
2021/08/04 05:34:52;;;;;;;;;;;;;;;18.69;76.97;100236.53;1407306;93;20240;-83
2021/08/04 05:37:18;;;;;;;;;;;;;;;18.71;76.79;100240.36;1416276;93;20346;-83
2021/08/04 05:39:44;;;;;;;;;;;;;;;18.77;77.19;100238.23;1402684;93;20336;-83
2021/08/04 05:42:11;;;;;;;;;;;;;;;18.88;77.33;100230.91;1413039;93;20380;-83
2021/08/04 05:44:38;;;;;;;;;;;;;;;18.98;77.12;100229.66;1404795;93;20878;-83
2021/08/04 05:47:04;;;;;;;;;;;;;;;19.03;76.70;100231.21;1409355;93;20387;-83
2021/08/04 05:49:30;;;;;;;;;;;;;;;19.09;76.79;100235.73;1409926;93;20350;-83
2021/08/04 05:51:56;;;;;;;;;;;;;;;19.17;76.86;100234.19;1412617;93;20409;-83
2021/08/04 05:54:21;;;;;;;;;;;;;;;19.21;76.23;100239.95;1409045;93;20247;-83
2021/08/04 05:56:47;;;;;;;;;;;;;;;19.17;75.95;100239.55;1414041;93;20269;-83
2021/08/04 05:59:16;;;;;;;;;;;;;;;19.09;76.25;100239.77;1423151;93;20914;-83
2021/08/04 06:01:42;;;;;;;;;;;;;;;19.11;75.98;100237.70;1409204;93;20233;-83
2021/08/04 06:04:08;;;;;;;;;;;;;;;19.28;76.50;100238.92;1410783;93;20322;-83
2021/08/04 06:06:34;;;;;;;;;;;;;;;19.46;76.53;100236.09;1417337;93;20761;-83
2021/08/04 06:09:00;;;;;;;;;;;;;;;19.56;76.06;100235.97;1412616;93;20413;-83
2021/08/04 06:11:26;;;;;;;;;;;;;;;19.59;75.49;100232.86;1413653;93;20291;-83
2021/08/04 06:13:52;;;;;;;;;;;;;;;19.67;75.80;100235.84;1410614;93;20300;-83
2021/08/04 06:16:18;;;;;;;;;;;;;;;19.74;75.52;100231.81;1414637;93;20291;-83
2021/08/04 06:18:44;;;;;;;;;;;;;;;19.82;75.57;100232.40;1411060;93;20343;-84
2021/08/04 06:21:10;;;;;;;;;;;;;;;19.89;74.93;100226.17;1405623;93;20298;-83
2021/08/04 06:23:36;;;;;;;;;;;;;;;20.02;75.01;100223.41;1417233;93;20446;-83
2021/08/04 06:26:02;;;;;;;;;;;;;;;20.09;74.70;100229.58;1403679;93;20284;-83
2021/08/04 06:28:28;;;;;;;;;;;;;;;20.31;75.04;100219.83;1407067;93;20297;-84
2021/08/04 06:30:54;;;;;;;;;;;;;;;20.51;74.20;100221.86;1408342;93;20255;-83
2021/08/04 06:33:20;;;;;;;;;;;;;;;20.68;74.14;100223.53;1410124;93;20427;-83
2021/08/04 06:35:47;;;;;;;;;;;;;;;20.90;74.39;100218.60;1411172;93;20335;-83
2021/08/04 06:38:13;;;;;;;;;;;;;;;21.07;73.49;100211.61;1406408;93;21453;-83
2021/08/04 06:40:39;;;;;;;;;;;;;;;21.27;72.99;100214.64;1408014;93;20472;-83
2021/08/04 06:43:05;;;;;;;;;;;;;;;21.40;72.56;100213.98;1415371;93;20240;-84
2021/08/04 06:45:31;;;;;;;;;;;;;;;21.54;72.26;100214.66;1411080;93;20276;-83
2021/08/04 06:47:57;;;;;;;;;;;;;;;21.62;71.20;100217.05;1405025;93;20344;-84
2021/08/04 06:50:26;;;;;;;;;;;;;;;21.62;69.19;100214.89;1410920;93;20321;-84
2021/08/04 06:52:53;;;;;;;;;;;;;;;21.71;69.56;100217.57;1411571;93;20307;-84
2021/08/04 06:55:19;;;;;;;;;;;;;;;21.82;68.78;100213.30;1419656;93;20233;-83
2021/08/04 06:57:45;;;;;;;;;;;;;;;21.98;69.33;100213.19;1406563;93;20819;-83
2021/08/04 07:00:12;;;;;;;;;;;;;;;22.14;69.14;100217.95;1411419;93;20389;-84
2021/08/04 07:02:38;;;;;;;;;;;;;;;22.29;67.79;100214.86;1415166;93;20305;-84
2021/08/04 07:05:05;;;;;;;;;;;;;;;22.43;67.47;100208.22;1410353;93;20769;-83
2021/08/04 07:07:31;;;;;;;;;;;;;;;22.60;66.49;100212.42;1413456;93;20322;-83
2021/08/04 07:09:57;;;;;;;;;;;;;;;22.76;65.47;100212.28;1410220;93;20254;-83
2021/08/04 07:12:23;;;;;;;;;;;;;;;22.97;65.63;100214.42;1406773;93;20329;-84
2021/08/04 07:14:51;;;;;;;;;;;;;;;23.19;63.71;100212.50;1406674;93;20453;-83
2021/08/04 07:17:18;;;;;;;;;;;;;;;23.41;63.83;100215.39;1404337;93;20336;-83
2021/08/04 07:19:44;;;;;;;;;;;;;;;23.57;63.32;100217.90;1416460;93;20269;-83
2021/08/04 07:22:10;;;;;;;;;;;;;;;23.72;64.51;100215.53;1418272;93;20320;-84
2021/08/04 07:24:36;;;;;;;;;;;;;;;23.92;62.86;100217.82;1411542;93;20731;-83
2021/08/04 07:27:03;;;;;;;;;;;;;;;23.99;62.17;100219.02;1407648;93;20269;-83
2021/08/04 07:29:29;;;;;;;;;;;;;;;24.15;63.14;100218.80;1412316;93;20836;-84
2021/08/04 07:31:55;;;;;;;;;;;;;;;24.36;61.69;100222.67;1414446;93;20299;-84
2021/08/04 07:34:24;;;;;;;;;;;;;;;24.61;60.36;100219.09;1406077;93;20402;-84
2021/08/04 07:36:52;;;;;;;;;;;;;;;24.72;59.82;100224.96;1410542;93;20248;-83
2021/08/04 07:39:18;;;;;;;;;;;;;;;24.74;58.99;100224.70;1412504;93;20875;-84
2021/08/04 07:41:45;;;;;;;;;;;;;;;24.68;59.65;100226.50;1410698;93;20799;-84
2021/08/04 07:44:11;;;;;;;;;;;;;;;24.59;59.21;100225.81;1407212;87;20612;-83
2021/08/04 07:46:38;;;;;;;;;;;;;;;24.50;57.38;100230.27;1422760;91;20294;-84
2021/08/04 07:49:04;;;;;;;;;;;;;;;24.56;58.88;100212.23;1447131;91;20823;-83
2021/08/04 07:51:30;;;;;;;;;;;;;;;24.62;57.43;100215.31;1451076;90;20213;-83
2021/08/04 07:53:56;;;;;;;;;;;;;;;24.78;57.39;100222.34;1446345;90;20383;-83
2021/08/04 07:56:25;;;;;;;;;;;;;;;24.81;57.64;100225.37;1439846;91;20258;-83
2021/08/04 07:58:51;;;;;;;;;;;;;;;24.75;57.81;100227.17;1433758;90;20257;-83
2021/08/04 08:01:17;;;;;;;;;;;;;;;24.70;56.64;100235.20;1440913;91;20229;-83
2021/08/04 08:03:44;;;;;;;;;;;;;;;24.85;57.43;100236.52;1448042;90;20301;-84
2021/08/04 08:06:10;;;;;;;;;;;;;;;24.92;58.01;100249.36;1439281;91;20286;-84
2021/08/04 08:08:36;;;;;;;;;;;;;;;24.94;55.85;100249.91;1442972;91;20294;-83
2021/08/04 08:11:04;;;;;;;;;;;;;;;25.10;56.95;100253.16;1440960;90;20235;-83
2021/08/04 08:13:31;;;;;;;;;;;;;;;25.27;56.72;100242.33;1448049;89;20782;-84
2021/08/04 08:15:57;;;;;;;;;;;;;;;25.02;56.32;100238.67;1440977;90;20220;-83
2021/08/04 08:18:23;;;;;;;;;;;;;;;24.98;56.09;100248.38;1441571;91;20324;-84
2021/08/04 08:20:49;;;;;;;;;;;;;;;24.96;57.19;100249.14;1443150;91;20785;-83
2021/08/04 08:23:15;;;;;;;;;;;;;;;24.98;56.98;100252.44;1443398;90;20250;-83
2021/08/04 08:25:41;;;;;;;;;;;;;;;24.93;56.25;100253.70;1442675;91;20340;-87
2021/08/04 08:28:08;;;;;;;;;;;;;;;25.19;57.60;100255.75;1443956;91;20816;-87
2021/08/04 08:30:36;;;;;;;;;;;;;;;25.12;55.59;100256.44;1437861;90;20735;-87
2021/08/04 08:33:02;;;;;;;;;;;;;;;25.40;57.02;100262.81;1439726;91;20450;-87
2021/08/04 08:35:30;;;;;;;;;;;;;;;25.35;53.90;100258.16;1441696;90;20259;-87
2021/08/04 08:37:56;;;;;;;;;;;;;;;25.31;54.78;100260.25;1445953;90;20926;-87
2021/08/04 08:40:23;;;;;;;;;;;;;;;25.37;55.79;100260.61;1440968;91;20802;-87
2021/08/04 08:42:49;;;;;;;;;;;;;;;25.26;53.98;100264.23;1447440;90;20250;-87
2021/08/04 08:45:15;;;;;;;;;;;;;;;25.39;55.40;100261.19;1420216;91;20417;-87
2021/08/04 08:47:43;;;;;;;;;;;;;;;25.48;55.02;100261.58;1433620;91;20952;-87
2021/08/04 08:50:10;;;;;;;;;;;;;;;25.47;54.95;100256.70;1426056;91;20464;-87
2021/08/04 08:52:37;;;;;;;;;;;;;;;25.60;55.56;100256.85;1435999;91;20313;-87
2021/08/04 08:55:05;;;;;;;;;;;;;;;25.68;53.65;100251.55;1432306;91;20424;-87
2021/08/04 08:57:31;;;;;;;;;;;;;;;25.71;54.41;100250.50;1435985;91;20441;-87
2021/08/04 08:59:58;;;;;;;;;;;;;;;25.77;54.46;100250.02;1434702;91;20343;-87
2021/08/04 09:02:26;;;;;;;;;;;;;;;25.82;54.18;100248.23;1432513;91;20410;-87
2021/08/04 09:05:05;;;;;;;;;;;;;;;25.73;53.54;100245.66;1433270;91;20871;-87
2021/08/04 09:07:40;;;;;;;;;;;;;;;25.72;54.08;100241.83;1434987;91;20901;-87
2021/08/04 09:10:30;;;;;;;;;;;;;;;25.69;53.62;100245.04;1428924;91;20285;-88
2021/08/04 09:12:59;;;;;;;;;;;;;;;25.56;52.34;100248.41;1434893;91;20321;-87
2021/08/04 09:15:37;;;;;;;;;;;;;;;25.64;53.51;100243.92;1396964;93;20354;-87
2021/08/04 09:18:06;;;;;;;;;;;;;;;25.77;52.54;100239.19;1433080;91;20348;-87
2021/08/04 09:20:54;;;;;;;;;;;;;;;25.92;52.16;100243.99;1432116;91;20388;-88
2021/08/04 09:23:26;;;;;;;;;;;;;;;25.97;53.66;100246.23;1419372;91;20307;-87
2021/08/04 09:26:06;;;;;;;;;;;;;;;26.01;51.83;100250.09;1425412;91;20269;-87
2021/08/04 09:29:02;;;;;;;;;;;;;;;26.03;53.45;100241.69;1435498;91;20857;-87
2021/08/04 09:31:44;;;;;;;;;;;;;;;26.01;52.30;100237.88;1436581;91;20285;-88
2021/08/04 09:34:41;;;;;;;;;;;;;;;26.09;53.18;100240.66;1414198;93;20400;-87
2021/08/04 09:37:09;;;;;;;;;;;;;;;25.88;54.40;100237.72;1432964;91;20862;-87
2021/08/04 09:39:37;;;;;;;;;;;;;;;25.63;52.29;100235.48;1396492;93;20328;-87
2021/08/04 09:42:03;;;;;;;;;;;;;;;25.91;53.57;100232.88;1429075;91;20351;-87
2021/08/04 09:44:30;;;;;;;;;;;;;;;26.18;54.41;100222.88;1435585;91;20337;-88
2021/08/04 09:47:13;;;;;;;;;;;;;;;26.51;53.89;100223.75;1444484;89;20259;-88
2021/08/04 09:49:41;;;;;;;;;;;;;;;26.82;53.03;100220.75;1442718;90;20346;-88
2021/08/04 09:52:12;;;;;;;;;;;;;;;27.06;51.36;100223.09;1448251;90;20383;-87
2021/08/04 09:54:40;;;;;;;;;;;;;;;27.31;51.92;100219.20;1438617;90;20423;-88
2021/08/04 09:57:07;;;;;;;;;;;;;;;27.39;48.99;100218.70;1449886;90;20332;-87
2021/08/04 09:59:33;;;;;;;;;;;;;;;27.34;48.79;100218.67;1440307;90;20581;-88
2021/08/04 10:02:00;;;;;;;;;;;;;;;27.30;48.11;100219.45;1441442;90;20235;-87
2021/08/04 10:04:26;;;;;;;;;;;;;;;27.19;48.69;100216.69;1445865;90;20377;-88
2021/08/04 10:07:07;;;;;;;;;;;;;;;27.32;49.04;100207.78;1445141;90;20525;-87
2021/08/04 10:09:33;;;;;;;;;;;;;;;27.43;49.02;100204.84;1428192;90;20329;-88
2021/08/04 10:12:00;;;;;;;;;;;;;;;27.56;49.62;100204.08;1441814;90;20851;-87
2021/08/04 10:14:26;;;;;;;;;;;;;;;27.71;49.46;100204.16;1450040;90;20957;-88
2021/08/04 10:16:53;;;;;;;;;;;;;;;27.89;50.22;100198.25;1449865;90;20278;-88
2021/08/04 10:19:20;;;;;;;;;;;;;;;28.12;47.72;100201.56;1443398;90;20258;-87
2021/08/04 10:21:51;;;;;;;;;;;;;;;28.39;49.76;100200.50;1438696;90;20242;-88
2021/08/04 10:24:18;;;;;;;;;;;;;;;28.62;48.57;100195.90;1446848;90;20346;-88
2021/08/04 10:26:44;;;;;;;;;;;;;;;28.84;47.19;100192.09;1426287;90;20483;-88
2021/08/04 10:29:11;;;;;;;;;;;;;;;28.91;47.59;100191.23;1433858;90;20376;-88
2021/08/04 10:31:39;;;;;;;;;;;;;;;28.96;47.64;100186.60;1447098;90;20756;-88
2021/08/04 10:34:07;;;;;;;;;;;;;;;28.65;46.33;100191.27;1435552;90;20394;-88
2021/08/04 10:36:39;;;;;;;;;;;;;;;28.82;47.60;100190.17;1446690;90;20309;-88
2021/08/04 10:39:09;;;;;;;;;;;;;;;28.94;47.93;100191.50;1436324;91;20250;-88
2021/08/04 10:41:35;;;;;;;;;;;;;;;29.01;48.65;100192.59;1397432;92;20239;-88
2021/08/04 10:44:05;;;;;;;;;;;;;;;29.03;47.38;100193.70;1423342;92;20827;-87
2021/08/04 10:46:37;;;;;;;;;;;;;;;29.01;46.61;100188.52;1416058;91;20333;-88
2021/08/04 10:49:09;;;;;;;;;;;;;;;29.11;47.67;100185.78;1423075;92;20304;-88
2021/08/04 10:51:47;;;;;;;;;;;;;;;29.36;48.53;100184.89;1421587;91;20340;-88
2021/08/04 10:54:17;;;;;;;;;;;;;;;29.65;47.45;100184.25;1407574;91;20878;-88
2021/08/04 10:56:50;;;;;;;;;;;;;;;29.98;46.17;100184.60;1443626;90;20258;-88
2021/08/04 10:59:23;;;;;;;;;;;;;;;30.14;42.86;100193.77;1420609;91;20245;-88
2021/08/04 11:02:05;;;;;;;;;;;;;;;30.04;43.24;100189.77;1453288;90;20444;-88
2021/08/04 11:04:40;;;;;;;;;;;;;;;29.88;43.43;100180.03;1402625;92;20355;-88
2021/08/04 11:07:17;;;;;;;;;;;;;;;29.85;44.32;100186.05;1439287;90;20274;-88
2021/08/04 11:09:57;;;;;;;;;;;;;;;29.93;44.11;100180.01;1446679;90;20243;-88
2021/08/04 11:12:35;;;;;;;;;;;;;;;29.97;43.85;100174.24;1445435;90;20346;-88
2021/08/04 11:15:03;;;;;;;;;;;;;;;30.02;44.04;100176.95;1441344;91;20302;-88
2021/08/04 11:17:35;;;;;;;;;;;;;;;29.95;43.53;100176.98;1439425;90;20436;-88
2021/08/04 11:20:09;;;;;;;;;;;;;;;30.17;44.58;100177.94;1447785;90;20421;-88
2021/08/04 11:22:38;;;;;;;;;;;;;;;30.29;43.83;100174.32;1433847;90;20294;-88
2021/08/04 11:25:33;;;;;;;;;;;;;;;30.31;43.34;100177.59;1398957;92;20415;-88
2021/08/04 11:28:02;;;;;;;;;;;;;;;30.27;43.14;100173.81;1445957;90;20256;-88
2021/08/04 11:30:33;;;;;;;;;;;;;;;30.18;43.38;100172.18;1403546;92;20354;-88
2021/08/04 11:33:22;;;;;;;;;;;;;;;30.18;42.35;100164.55;1405322;92;20265;-89
2021/08/04 11:36:12;;;;;;;;;;;;;;;30.24;42.30;100163.44;1441022;91;20361;-88
2021/08/04 11:38:41;;;;;;;;;;;;;;;30.25;45.24;100162.36;1449986;91;20318;-88
2021/08/04 11:41:25;;;;;;;;;;;;;;;30.41;44.10;100165.20;1436383;91;20405;-88
2021/08/04 11:44:00;;;;;;;;;;;;;;;30.21;42.36;100157.16;1445809;91;20347;-88
2021/08/04 11:46:39;;;;;;;;;;;;;;;30.08;44.34;100166.26;1439271;91;20273;-88
2021/08/04 11:49:17;;;;;;;;;;;;;;;30.09;44.76;100171.97;1422338;91;20359;-88
2021/08/04 11:51:46;;;;;;;;;;;;;;;29.98;42.63;100169.07;1435961;91;20287;-88
2021/08/04 11:54:13;;;;;;;;;;;;;;;30.20;42.46;100167.81;1433663;90;20227;-88
2021/08/04 11:56:47;;;;;;;;;;;;;;;30.25;43.13;100159.63;1444356;90;20243;-88
2021/08/04 11:59:14;;;;;;;;;;;;;;;30.30;42.46;100159.03;1442311;90;20427;-88
2021/08/04 12:01:42;;;;;;;;;;;;;;;30.62;42.45;100156.86;1427372;90;20506;-88
2021/08/04 12:04:11;;;;;;;;;;;;;;;30.87;42.68;100159.34;1402237;92;20289;-88
2021/08/04 12:06:39;;;;;;;;;;;;;;;31.01;39.19;100160.84;1423621;92;20409;-88
2021/08/04 12:09:32;;;;;;;;;;;;;;;30.44;36.95;100151.01;1430531;92;20318;-89
2021/08/04 12:11:59;;;;;;;;;;;;;;;30.80;37.74;100143.86;1447204;90;20264;-88
2021/08/04 12:14:25;;;;;;;;;;;;;;;30.51;37.54;100148.75;1444458;90;20795;-89
2021/08/04 12:16:56;;;;;;;;;;;;;;;30.58;38.01;100139.69;1444038;90;20264;-88
2021/08/04 12:19:28;;;;;;;;;;;;;;;30.45;39.69;100140.90;1445782;90;20250;-88
2021/08/04 12:21:55;;;;;;;;;;;;;;;30.41;40.43;100147.45;1443957;90;20227;-89
2021/08/04 12:24:21;;;;;;;;;;;;;;;30.39;40.46;100138.77;1449575;90;20353;-88
2021/08/04 12:26:48;;;;;;;;;;;;;;;30.42;38.34;100145.57;1442987;90;20332;-88
2021/08/04 12:29:17;;;;;;;;;;;;;;;30.41;39.11;100147.45;1427466;90;20779;-89
2021/08/04 12:32:02;;;;;;;;;;;;;;;30.29;39.52;100145.66;1453016;89;20814;-89
2021/08/04 12:34:28;;;;;;;;;;;;;;;30.19;38.85;100142.44;1440874;90;20301;-88
2021/08/04 12:36:55;;;;;;;;;;;;;;;30.21;40.08;100142.14;1444915;90;20905;-89
2021/08/04 12:39:24;;;;;;;;;;;;;;;30.18;38.71;100141.34;1438176;90;20354;-88
2021/08/04 12:41:50;;;;;;;;;;;;;;;30.19;39.79;100138.91;1431812;90;20339;-88
2021/08/04 12:44:17;;;;;;;;;;;;;;;30.34;40.54;100131.98;1445725;90;20331;-88